Accueil
METAR-TAF:

METAR-TAF

Aéroports :

Altenstadt, Allemagne

latitude: 47-50N, longitude: 010-52E, altitude: 739 m

Observation

Le bulletin a été fait il y a 43 minutes, à 07:20 UTC
Vent 2 kt de sud-ouest
Température -2°C
Humidité 74%
Pression 1019 hPa
Visibilité 10 km ou plus
Quelques nuages à une hauteur de 30000 ft

METAR: ETHA 060720Z 23002KT 9999 FEW300 M02/M06 Q1019 BLU+BLU+

Heure: 09:03 (08:03 UTC)

Prévision

Le bulletin a été fait il y a 2 heures et 43 minutes, à 05:20 UTC
Prévision valable du 06 à 06 UTC au 06 à 15 UTC
Vent 8 kt de ouest/sud-ouest
Visibilité 10 km ou plus
Quelques nuages à une hauteur de 30000 ft

TAF: ETHA 060520Z 0606/0615 24008KT 9999 NSW FEW300

Observations et prévisions météorologiques de plus de 4000 aéroports (messages METAR et TAF).

Les stations disponibles sont représentées par des disques jaunes et rouges sur la carte.

Passer la souris dessus pour voir le nom de la station.

Cliquer dessus pour voir les observations et prévisions météorologiques.

Pour changer de carte: cliquez sur les boutons verts avec une croix noire pour zoomer, sur le bouton vert avec un tiret pour effectuer un zoom arrière, ou sur les flèches vertes pour les cartes adjacentes.


METAR-TAF: